Time;durP1;ratioP1;P1;durP2;ratioP2;P2;SDS_P1;SDS_P2;PMS_P1;PMS_P2;Temp;Humidity;BMP_temperature;BMP_pressure;BME280_temperature;BME280_humidity;BME280_pressure;Samples;Min_cycle;Max_cycle;Signal;HPM_P1;HPM_P2
2024/02/21 00:00:49;;;;;;;0.40;0.40;;;;;;;6.14;100.00;100125.75;5034760;28;20037;-59
2024/02/21 00:03:16;;;;;;;0.50;0.50;;;;;;;6.24;100.00;100131.56;5024631;28;20175;-59
2024/02/21 00:05:43;;;;;;;0.30;0.30;;;;;;;6.28;100.00;100149.81;5030667;28;20136;-59
2024/02/21 00:08:10;;;;;;;0.30;0.30;;;;;;;6.33;100.00;100142.06;5035781;28;20045;-58
2024/02/21 00:10:37;;;;;;;0.40;0.40;;;;;;;6.35;100.00;100148.84;5034918;28;20048;-59
2024/02/21 00:13:04;;;;;;;0.40;0.40;;;;;;;6.40;100.00;100149.09;5029760;28;20134;-59
2024/02/21 00:15:32;;;;;;;0.38;0.38;;;;;;;6.43;100.00;100147.88;5031355;28;20038;-59
2024/02/21 00:18:00;;;;;;;0.30;0.30;;;;;;;6.44;100.00;100146.84;5036228;28;20078;-59
2024/02/21 00:20:28;;;;;;;0.40;0.40;;;;;;;6.41;100.00;100133.91;5030836;28;20098;-59
2024/02/21 00:22:55;;;;;;;0.32;0.32;;;;;;;6.36;100.00;100136.34;5033079;28;20041;-59
2024/02/21 00:25:22;;;;;;;0.40;0.40;;;;;;;6.38;100.00;100143.13;5031982;28;20048;-58
2024/02/21 00:27:49;;;;;;;0.40;0.40;;;;;;;6.40;100.00;100148.28;5031456;28;20037;-59
2024/02/21 00:30:16;;;;;;;0.40;0.40;;;;;;;6.42;100.00;100132.94;5039945;28;20052;-59
2024/02/21 00:32:44;;;;;;;0.45;0.45;;;;;;;6.38;100.00;100147.63;5035504;28;20045;-59
2024/02/21 00:35:12;;;;;;;0.50;0.50;;;;;;;6.43;100.00;100147.88;5032187;28;20040;-58
2024/02/21 00:37:39;;;;;;;0.40;0.40;;;;;;;6.38;100.00;100135.13;5032692;28;20045;-58
2024/02/21 00:40:07;;;;;;;0.35;0.35;;;;;;;6.31;100.00;100128.13;5026248;28;20055;-59
2024/02/21 00:42:37;;;;;;;0.40;0.40;;;;;;;6.32;100.00;100113.81;5027692;28;20561;-59
2024/02/21 00:45:06;;;;;;;0.40;0.40;;;;;;;6.30;100.00;100108.66;5034346;28;20099;-59
2024/02/21 00:47:33;;;;;;;0.50;0.50;;;;;;;6.26;100.00;100097.59;5031858;28;20080;-59
2024/02/21 00:50:02;;;;;;;0.40;0.40;;;;;;;6.24;100.00;100083.63;5033485;28;20327;-59
2024/02/21 00:52:29;;;;;;;0.30;0.30;;;;;;;6.23;100.00;100092.63;5034189;28;20207;-59
2024/02/21 00:54:56;;;;;;;0.40;0.40;;;;;;;6.25;100.00;100095.91;5036477;28;20099;-59
2024/02/21 00:57:23;;;;;;;0.40;0.40;;;;;;;6.15;100.00;100094.63;5034902;28;20147;-58
2024/02/21 00:59:50;;;;;;;0.40;0.40;;;;;;;6.10;100.00;100087.19;5027625;28;20038;-59
2024/02/21 01:02:17;;;;;;;0.30;0.30;;;;;;;6.05;100.00;100084.28;5028918;28;20839;-56
2024/02/21 01:04:45;;;;;;;0.50;0.50;;;;;;;6.13;100.00;100078.81;5028579;28;20392;-59
2024/02/21 01:07:13;;;;;;;0.40;0.40;;;;;;;6.23;100.00;100076.66;5030898;28;20129;-58
2024/02/21 01:09:40;;;;;;;0.30;0.30;;;;;;;6.21;100.00;100083.19;5033373;28;20156;-59
2024/02/21 01:12:07;;;;;;;0.40;0.40;;;;;;;6.19;100.00;100074.56;5041760;28;20155;-59
2024/02/21 01:14:34;;;;;;;0.30;0.30;;;;;;;6.21;100.00;100073.34;5034206;28;20590;-59
2024/02/21 01:17:02;;;;;;;0.43;0.43;;;;;;;6.11;100.00;100072.88;5035668;28;20092;-59
2024/02/21 01:19:29;;;;;;;0.40;0.40;;;;;;;6.08;100.00;100077.75;5029162;28;20049;-59
2024/02/21 01:21:56;;;;;;;0.40;0.40;;;;;;;6.17;100.00;100088.09;5028577;28;20128;-58
2024/02/21 01:24:24;;;;;;;0.40;0.40;;;;;;;6.18;100.00;100089.72;5032069;28;20106;-59
2024/02/21 01:26:51;;;;;;;0.50;0.50;;;;;;;6.22;100.00;100096.31;5029161;28;20076;-59
2024/02/21 01:29:18;;;;;;;0.43;0.43;;;;;;;6.19;100.00;100095.84;5028347;28;20438;-59
2024/02/21 01:31:47;;;;;;;0.40;0.40;;;;;;;6.26;100.00;100096.75;5032530;28;20079;-57
2024/02/21 01:34:14;;;;;;;0.40;0.40;;;;;;;6.17;100.00;100093.41;5028958;28;20696;-57
2024/02/21 01:36:41;;;;;;;0.40;0.40;;;;;;;6.19;100.00;100080.72;5035026;28;20869;-57
2024/02/21 01:39:08;;;;;;;0.43;0.43;;;;;;;6.14;100.00;100061.00;5029347;28;20049;-57
2024/02/21 01:41:37;;;;;;;0.38;0.38;;;;;;;6.15;100.00;100068.81;5035771;28;20128;-57
2024/02/21 01:44:04;;;;;;;0.40;0.40;;;;;;;6.21;100.00;100069.88;5030101;28;20061;-57
2024/02/21 01:46:31;;;;;;;0.40;0.40;;;;;;;6.19;100.00;100070.09;5026102;28;20041;-57
2024/02/21 01:48:58;;;;;;;0.50;0.50;;;;;;;6.19;100.00;100061.25;5029952;28;20778;-57
2024/02/21 01:51:25;;;;;;;0.50;0.50;;;;;;;6.18;100.00;100057.78;5041352;28;20658;-57
2024/02/21 01:53:53;;;;;;;0.47;0.47;;;;;;;6.14;100.00;100051.22;5031303;28;20624;-57
2024/02/21 01:56:20;;;;;;;0.50;0.50;;;;;;;6.17;100.00;100050.00;5041466;28;20073;-58
2024/02/21 01:58:48;;;;;;;0.40;0.40;;;;;;;6.16;100.00;100037.69;5034471;28;20590;-57
2024/02/21 02:01:15;;;;;;;0.32;0.32;;;;;;;6.14;100.00;100035.25;5032146;28;20140;-57
2024/02/21 02:03:42;;;;;;;0.43;0.43;;;;;;;6.12;100.00;100026.63;5031786;28;20079;-57
2024/02/21 02:06:09;;;;;;;0.40;0.40;;;;;;;6.11;100.00;100024.97;5035328;28;20052;-57
2024/02/21 02:08:36;;;;;;;0.40;0.40;;;;;;;6.19;100.00;100030.16;5038852;28;20041;-57
2024/02/21 02:11:04;;;;;;;0.43;0.43;;;;;;;6.28;100.00;100030.00;5042131;28;20736;-59
2024/02/21 02:13:33;;;;;;;0.50;0.50;;;;;;;6.18;100.00;100031.16;5029526;28;20041;-56
2024/02/21 02:16:02;;;;;;;0.40;0.40;;;;;;;6.24;100.00;100034.88;5039182;28;20043;-57
2024/02/21 02:18:29;;;;;;;0.50;0.50;;;;;;;6.22;100.00;100021.78;5040824;28;20184;-57
2024/02/21 02:20:56;;;;;;;0.50;0.50;;;;;;;6.26;100.00;100007.06;5038970;28;20258;-58
2024/02/21 02:23:26;;;;;;;0.50;0.50;;;;;;;6.29;100.00;99995.22;5039994;28;20068;-57
2024/02/21 02:25:53;;;;;;;0.50;0.50;;;;;;;6.21;100.00;99990.00;5039500;28;20128;-57
2024/02/21 02:28:20;;;;;;;0.40;0.40;;;;;;;6.10;100.00;99994.06;5041698;28;20060;-57
2024/02/21 02:30:48;;;;;;;0.40;0.40;;;;;;;6.25;100.00;99991.28;5038733;28;20826;-57
2024/02/21 02:33:17;;;;;;;0.50;0.50;;;;;;;6.17;100.00;99983.44;5036337;28;20127;-57
2024/02/21 02:35:44;;;;;;;0.50;0.50;;;;;;;6.23;100.00;99975.50;5030143;28;20120;-57
2024/02/21 02:38:13;;;;;;;0.40;0.40;;;;;;;6.25;100.00;99962.81;5037104;28;20041;-57
2024/02/21 02:40:41;;;;;;;0.32;0.32;;;;;;;6.34;100.00;99954.66;5039284;28;20049;-57
2024/02/21 02:43:08;;;;;;;0.30;0.30;;;;;;;6.31;100.00;99950.53;5034232;28;20044;-58
2024/02/21 02:45:35;;;;;;;0.32;0.32;;;;;;;6.38;100.00;99955.91;5034738;28;20559;-57
2024/02/21 02:48:03;;;;;;;0.40;0.40;;;;;;;6.25;100.00;99941.50;5035300;28;20146;-57
2024/02/21 02:50:30;;;;;;;0.40;0.40;;;;;;;6.26;100.00;99937.84;5039904;28;20488;-57
2024/02/21 02:52:57;;;;;;;0.50;0.50;;;;;;;6.18;100.00;99935.31;5032673;28;20045;-57
2024/02/21 02:55:24;;;;;;;0.30;0.30;;;;;;;6.24;100.00;99931.03;5041023;28;20049;-57
2024/02/21 02:57:52;;;;;;;0.35;0.35;;;;;;;6.21;100.00;99934.94;5034560;28;20046;-57
2024/02/21 03:00:20;;;;;;;0.40;0.40;;;;;;;6.22;100.00;99938.44;5035155;28;20048;-57
2024/02/21 03:02:47;;;;;;;0.30;0.30;;;;;;;6.37;100.00;99939.13;5026822;28;20565;-57
2024/02/21 03:05:15;;;;;;;0.40;0.40;;;;;;;6.34;100.00;99949.34;5037080;28;20055;-57
2024/02/21 03:07:42;;;;;;;0.30;0.30;;;;;;;6.29;100.00;99938.44;5039421;28;20056;-57
2024/02/21 03:10:10;;;;;;;0.40;0.40;;;;;;;6.25;100.00;99941.50;5032352;28;20518;-57
2024/02/21 03:12:36;;;;;;;0.40;0.40;;;;;;;6.31;100.00;99949.72;5031534;28;20135;-58
2024/02/21 03:15:05;;;;;;;0.40;0.40;;;;;;;6.41;100.00;99956.31;5034764;28;20069;-58
2024/02/21 03:17:34;;;;;;;0.45;0.45;;;;;;;6.32;100.00;99951.38;5036868;28;20665;-58
2024/02/21 03:20:01;;;;;;;0.40;0.40;;;;;;;6.36;100.00;99953.44;5039095;28;20041;-58
2024/02/21 03:22:28;;;;;;;0.40;0.40;;;;;;;6.35;100.00;99956.31;5041820;28;20052;-58
2024/02/21 03:24:55;;;;;;;0.40;0.40;;;;;;;6.38;100.00;99947.94;5031782;28;20074;-58
2024/02/21 03:27:22;;;;;;;0.40;0.40;;;;;;;6.33;100.00;99947.69;5030400;28;20049;-57
2024/02/21 03:29:49;;;;;;;0.40;0.40;;;;;;;6.39;100.00;99947.75;5032318;28;20051;-58
2024/02/21 03:32:17;;;;;;;0.40;0.40;;;;;;;6.26;100.00;99937.84;5033040;28;21796;-58
2024/02/21 03:34:44;;;;;;;0.32;0.32;;;;;;;6.28;100.00;99939.47;5039639;28;20045;-57
2024/02/21 03:37:13;;;;;;;0.40;0.40;;;;;;;6.31;100.00;99945.22;5039336;28;20033;-58
2024/02/21 03:39:40;;;;;;;0.40;0.40;;;;;;;6.26;100.00;99940.50;5032528;28;20099;-58
2024/02/21 03:42:07;;;;;;;0.30;0.30;;;;;;;6.28;100.00;99929.66;5053575;28;20057;-58
2024/02/21 03:44:34;;;;;;;0.30;0.30;;;;;;;6.26;100.00;99931.69;5037533;28;20135;-58
2024/02/21 03:47:01;;;;;;;0.35;0.35;;;;;;;6.26;100.00;99924.53;5036444;28;20076;-58
2024/02/21 03:49:30;;;;;;;0.30;0.30;;;;;;;6.34;100.00;99928.88;5030974;28;20061;-57
2024/02/21 03:51:57;;;;;;;0.40;0.40;;;;;;;6.27;100.00;99928.00;5036280;28;20135;-58
2024/02/21 03:54:24;;;;;;;0.40;0.40;;;;;;;6.21;100.00;99918.97;5027017;28;20045;-58
2024/02/21 03:56:51;;;;;;;0.40;0.40;;;;;;;6.25;100.00;99922.06;5031653;28;20115;-58
2024/02/21 03:59:18;;;;;;;0.30;0.30;;;;;;;6.28;100.00;99912.84;5036497;28;20136;-58
2024/02/21 04:01:45;;;;;;;0.47;0.47;;;;;;;6.32;100.00;99903.47;5031688;28;20057;-58
2024/02/21 04:04:12;;;;;;;0.35;0.35;;;;;;;6.31;100.00;99905.28;5027384;28;20072;-58
2024/02/21 04:06:48;;;;;;;0.40;0.40;;;;;;;6.28;100.00;99902.22;5036298;28;20041;-58
2024/02/21 04:09:15;;;;;;;0.40;0.40;;;;;;;6.14;100.00;99891.50;5024789;28;20056;-58
2024/02/21 04:11:42;;;;;;;0.30;0.30;;;;;;;6.17;100.00;99880.47;5035860;28;20053;-58
2024/02/21 04:14:11;;;;;;;0.30;0.30;;;;;;;6.30;100.00;99874.38;5037818;28;20124;-60
2024/02/21 04:16:38;;;;;;;0.20;0.20;;;;;;;6.28;100.00;99864.94;5036171;28;20048;-61
2024/02/21 04:19:05;;;;;;;0.40;0.40;;;;;;;6.20;100.00;99853.44;5034321;28;20127;-60
2024/02/21 04:21:32;;;;;;;0.32;0.32;;;;;;;6.21;100.00;99849.75;5028001;28;20038;-59
2024/02/21 04:24:01;;;;;;;0.40;0.40;;;;;;;6.25;100.00;99844.88;5031155;28;20052;-59
2024/02/21 04:26:28;;;;;;;0.32;0.32;;;;;;;6.22;100.00;99842.59;5033690;28;20557;-58
2024/02/21 04:28:56;;;;;;;0.40;0.40;;;;;;;6.34;100.00;99853.47;5032113;28;20049;-59
2024/02/21 04:31:23;;;;;;;0.40;0.40;;;;;;;6.33;100.00;99849.19;5036718;28;20100;-58
2024/02/21 04:33:50;;;;;;;0.50;0.50;;;;;;;6.35;100.00;99855.13;5036371;28;20489;-58
2024/02/21 04:36:17;;;;;;;0.40;0.40;;;;;;;6.20;100.00;99844.63;5036223;28;20048;-59
2024/02/21 04:38:44;;;;;;;0.38;0.38;;;;;;;6.28;100.00;99848.97;5034790;28;20033;-58
2024/02/21 04:41:12;;;;;;;0.40;0.40;;;;;;;6.16;100.00;99846.84;5034773;28;20575;-58
2024/02/21 04:43:39;;;;;;;0.40;0.40;;;;;;;6.19;100.00;99851.81;5031388;28;20051;-58
2024/02/21 04:46:06;;;;;;;0.38;0.38;;;;;;;6.13;100.00;99855.25;5034886;28;20049;-58
2024/02/21 04:48:33;;;;;;;0.50;0.50;;;;;;;6.21;100.00;99855.06;5033295;28;20572;-59
2024/02/21 04:51:01;;;;;;;0.43;0.43;;;;;;;6.17;100.00;99853.84;5031496;28;20057;-59
2024/02/21 04:53:28;;;;;;;0.30;0.30;;;;;;;6.18;100.00;99855.47;5031698;28;20060;-58
2024/02/21 04:55:55;;;;;;;0.40;0.40;;;;;;;6.14;100.00;99851.59;5030258;28;20056;-58
2024/02/21 04:58:24;;;;;;;0.40;0.40;;;;;;;6.09;100.00;99845.19;5035546;28;20041;-58
2024/02/21 05:00:51;;;;;;;0.40;0.40;;;;;;;6.22;100.00;99848.75;5027736;28;20051;-58
2024/02/21 05:03:18;;;;;;;0.50;0.50;;;;;;;6.14;100.00;99856.06;5030180;28;20073;-58
2024/02/21 05:05:45;;;;;;;0.40;0.40;;;;;;;6.20;100.00;99844.63;5034589;28;20063;-58
2024/02/21 05:08:13;;;;;;;0.40;0.40;;;;;;;6.23;100.00;99839.72;5030394;28;20392;-59
2024/02/21 05:10:40;;;;;;;0.43;0.43;;;;;;;6.19;100.00;99843.81;5036655;28;20472;-58
2024/02/21 05:13:08;;;;;;;0.40;0.40;;;;;;;6.16;100.00;99843.38;5029921;28;20632;-58
2024/02/21 05:15:38;;;;;;;0.40;0.40;;;;;;;6.22;100.00;99848.75;5031668;28;20045;-59
2024/02/21 05:18:07;;;;;;;0.60;0.60;;;;;;;6.14;100.00;99856.91;5032492;28;20086;-58
2024/02/21 05:20:34;;;;;;;0.50;0.50;;;;;;;6.10;100.00;99853.00;5033584;28;20049;-58
2024/02/21 05:23:01;;;;;;;0.30;0.30;;;;;;;6.03;100.00;99846.81;5034850;28;20126;-58
2024/02/21 05:25:28;;;;;;;0.40;0.40;;;;;;;6.08;100.00;99849.69;5036641;28;20500;-58
2024/02/21 05:27:56;;;;;;;0.40;0.40;;;;;;;6.01;100.00;99836.34;5031991;28;20506;-59
2024/02/21 05:30:23;;;;;;;0.40;0.40;;;;;;;6.07;100.00;99842.75;5036000;28;20068;-58
2024/02/21 05:32:51;;;;;;;0.40;0.40;;;;;;;6.04;100.00;99838.63;5048521;28;20526;-58
2024/02/21 05:35:19;;;;;;;0.40;0.40;;;;;;;6.08;100.00;99844.38;5037372;28;20069;-58
2024/02/21 05:37:48;;;;;;;0.40;0.40;;;;;;;6.13;100.00;99852.59;5027964;28;20041;-58
2024/02/21 05:40:15;;;;;;;0.47;0.47;;;;;;;6.12;100.00;99853.63;5031147;28;20044;-57
2024/02/21 05:42:42;;;;;;;0.40;0.40;;;;;;;6.05;100.00;99845.59;5037609;28;20467;-58
2024/02/21 05:45:09;;;;;;;0.30;0.30;;;;;;;6.08;100.00;99847.03;5038988;28;20480;-58
2024/02/21 05:47:36;;;;;;;0.30;0.30;;;;;;;6.06;100.00;99846.41;5034754;28;20140;-59
2024/02/21 05:50:06;;;;;;;0.50;0.50;;;;;;;6.04;100.00;99843.97;5036046;28;20510;-58
2024/02/21 05:52:34;;;;;;;;;;;;;;;6.19;100.00;99841.16;5033172;28;20053;-58
2024/02/21 05:55:01;;;;;;;0.40;0.40;;;;;;;6.09;100.00;99839.88;5040325;28;20365;-58
2024/02/21 05:57:28;;;;;;;0.30;0.30;;;;;;;6.00;100.00;99833.91;5036121;28;20041;-58
2024/02/21 05:59:55;;;;;;;0.30;0.30;;;;;;;6.06;100.00;99835.75;5042268;28;20134;-58
2024/02/21 06:02:22;;;;;;;0.40;0.40;;;;;;;6.09;100.00;99815.91;5039405;28;20056;-58
2024/02/21 06:04:49;;;;;;;0.40;0.40;;;;;;;6.01;100.00;99817.72;5036124;28;20080;-57
2024/02/21 06:07:17;;;;;;;0.30;0.30;;;;;;;6.06;100.00;99809.16;5032680;28;20052;-58
2024/02/21 06:09:45;;;;;;;0.40;0.40;;;;;;;5.91;100.00;99814.59;5037241;28;20184;-58
2024/02/21 06:12:12;;;;;;;0.40;0.40;;;;;;;5.93;100.00;99804.56;5037296;28;20056;-56
2024/02/21 06:14:39;;;;;;;0.35;0.35;;;;;;;5.88;100.00;99808.84;5030726;28;20042;-58
2024/02/21 06:17:06;;;;;;;0.40;0.40;;;;;;;6.07;100.00;99805.50;5040385;28;20055;-58
2024/02/21 06:19:33;;;;;;;0.30;0.30;;;;;;;5.96;100.00;99814.03;5029521;28;20693;-58
2024/02/21 06:22:00;;;;;;;0.30;0.30;;;;;;;5.92;100.00;99802.94;5033883;28;20522;-58
2024/02/21 06:24:28;;;;;;;0.43;0.43;;;;;;;5.97;100.00;99799.72;5035203;28;20067;-58
2024/02/21 06:26:55;;;;;;;0.40;0.40;;;;;;;5.90;100.00;99797.00;5036385;28;20515;-58
2024/02/21 06:29:22;;;;;;;0.40;0.40;;;;;;;5.89;100.00;99807.81;5043019;28;20705;-58
2024/02/21 06:31:49;;;;;;;0.43;0.43;;;;;;;5.86;100.00;99806.38;5035823;28;20139;-58
2024/02/21 06:34:16;;;;;;;0.30;0.30;;;;;;;5.90;100.00;99796.16;5031102;28;20457;-56
2024/02/21 06:36:43;;;;;;;0.30;0.30;;;;;;;5.91;100.00;99789.81;5027574;28;20050;-58
2024/02/21 06:39:11;;;;;;;0.40;0.40;;;;;;;5.95;100.00;99783.13;5035484;28;20886;-57
2024/02/21 06:41:40;;;;;;;0.30;0.30;;;;;;;5.91;100.00;99789.81;5041769;28;20671;-57
2024/02/21 06:44:07;;;;;;;0.40;0.40;;;;;;;5.97;100.00;99795.22;5030058;28;20071;-57
2024/02/21 06:46:34;;;;;;;0.40;0.40;;;;;;;5.94;100.00;99794.78;5041013;28;20048;-59
2024/02/21 06:49:03;;;;;;;0.35;0.35;;;;;;;5.94;100.00;99797.44;5029900;28;20320;-59
2024/02/21 06:51:30;;;;;;;0.40;0.40;;;;;;;5.91;100.00;99793.28;5036918;28;20037;-59
2024/02/21 06:53:57;;;;;;;0.40;0.40;;;;;;;5.93;100.00;99788.59;5032758;28;20123;-59
2024/02/21 06:56:26;;;;;;;0.43;0.43;;;;;;;6.06;100.00;99787.88;5038020;28;20083;-58
2024/02/21 06:58:55;;;;;;;0.60;0.60;;;;;;;6.11;100.00;99789.94;5036883;28;20099;-59
2024/02/21 07:01:22;;;;;;;0.50;0.50;;;;;;;6.15;100.00;99797.31;5033096;28;20087;-58
2024/02/21 07:03:49;;;;;;;0.40;0.40;;;;;;;6.07;100.00;99789.53;5033199;28;20140;-59
2024/02/21 07:06:17;;;;;;;0.45;0.45;;;;;;;6.02;100.00;99787.44;5032780;28;20068;-58
2024/02/21 07:08:44;;;;;;;0.40;0.40;;;;;;;5.86;100.00;99789.59;5034043;28;20133;-58
2024/02/21 07:11:12;;;;;;;0.40;0.40;;;;;;;6.09;100.00;99784.81;5037577;28;20056;-58
2024/02/21 07:13:39;;;;;;;0.50;0.50;;;;;;;6.15;100.00;99786.66;5031842;28;20048;-59
2024/02/21 07:16:08;;;;;;;0.43;0.43;;;;;;;6.13;100.00;99783.38;5036187;28;20049;-59
2024/02/21 07:18:35;;;;;;;0.50;0.50;;;;;;;6.24;100.00;99782.81;5033126;28;20044;-58
2024/02/21 07:21:02;;;;;;;0.40;0.40;;;;;;;6.11;100.00;99777.44;5039432;28;20106;-58
2024/02/21 07:23:29;;;;;;;0.40;0.40;;;;;;;6.17;100.00;99774.00;5035933;28;20431;-58
2024/02/21 07:25:56;;;;;;;0.40;0.40;;;;;;;6.30;100.00;99780.38;5032780;28;20139;-59
2024/02/21 07:28:23;;;;;;;0.40;0.40;;;;;;;6.29;100.00;99776.91;5040147;28;20053;-58
2024/02/21 07:30:50;;;;;;;0.40;0.40;;;;;;;6.24;100.00;99769.50;5032309;28;20099;-59
2024/02/21 07:33:19;;;;;;;0.35;0.35;;;;;;;6.24;100.00;99764.19;5027774;28;20055;-59
2024/02/21 07:35:46;;;;;;;0.30;0.30;;;;;;;6.25;100.00;99767.66;5030518;28;20056;-59
2024/02/21 07:38:14;;;;;;;0.47;0.47;;;;;;;6.41;100.00;99761.13;5033479;28;20064;-58
2024/02/21 07:40:41;;;;;;;0.30;0.30;;;;;;;6.43;100.00;99767.09;5030132;28;20056;-59
2024/02/21 07:43:09;;;;;;;0.50;0.50;;;;;;;6.36;100.00;99758.25;5036560;28;20049;-61
2024/02/21 07:45:36;;;;;;;0.43;0.43;;;;;;;6.47;100.00;99755.81;5032458;28;20091;-59
2024/02/21 07:48:03;;;;;;;0.40;0.40;;;;;;;6.57;100.00;99762.63;5033544;28;20549;-58
2024/02/21 07:50:32;;;;;;;0.40;0.40;;;;;;;6.41;100.00;99750.47;5040766;28;20094;-58
2024/02/21 07:52:59;;;;;;;0.40;0.40;;;;;;;6.46;100.00;99756.03;5033073;28;20056;-59
2024/02/21 07:55:26;;;;;;;0.50;0.50;;;;;;;6.64;100.00;99753.59;5040043;28;20137;-58
2024/02/21 07:57:53;;;;;;;0.40;0.40;;;;;;;6.77;100.00;99749.31;5026234;28;20525;-57
2024/02/21 08:00:21;;;;;;;0.40;0.40;;;;;;;6.68;100.00;99748.66;5032544;28;20041;-58
2024/02/21 08:02:49;;;;;;;0.38;0.38;;;;;;;6.73;100.00;99751.53;5038782;28;20495;-58
2024/02/21 08:05:16;;;;;;;0.40;0.40;;;;;;;6.76;100.00;99750.31;5034910;28;20052;-59
2024/02/21 08:07:44;;;;;;;0.40;0.40;;;;;;;6.57;100.00;99747.44;5031780;28;20476;-59
2024/02/21 08:10:11;;;;;;;0.30;0.30;;;;;;;6.78;100.00;99750.94;5032230;28;20586;-59
2024/02/21 08:12:40;;;;;;;0.40;0.40;;;;;;;6.93;100.00;99738.22;5038397;28;20051;-60
2024/02/21 08:15:10;;;;;;;0.30;0.30;;;;;;;6.78;100.00;99745.59;5032247;28;20045;-60
2024/02/21 08:17:37;;;;;;;0.40;0.40;;;;;;;6.88;100.00;99743.34;5025415;28;20060;-58
2024/02/21 08:20:05;;;;;;;0.35;0.35;;;;;;;6.74;100.00;99749.69;5035384;28;20049;-61
2024/02/21 08:22:34;;;;;;;0.38;0.38;;;;;;;6.91;100.00;99737.59;5029406;28;20064;-60
2024/02/21 08:25:05;;;;;;;0.30;0.30;;;;;;;7.00;100.00;99736.38;5029241;28;20807;-59
2024/02/21 08:27:33;;;;;;;0.40;0.40;;;;;;;7.25;100.00;99723.22;5032269;28;20056;-57
2024/02/21 08:30:00;;;;;;;0.35;0.35;;;;;;;7.29;100.00;99718.28;5032306;28;20045;-59
2024/02/21 08:32:27;;;;;;;0.30;0.30;;;;;;;7.50;100.00;99715.34;5017578;28;20703;-59
2024/02/21 08:34:59;;;;;;;0.30;0.30;;;;;;;7.73;100.00;99708.69;5031537;28;20065;-60
2024/02/21 08:37:28;;;;;;;0.30;0.30;;;;;;;7.77;99.12;99709.91;5028133;28;20492;-59
2024/02/21 08:39:56;;;;;;;0.40;0.40;;;;;;;7.62;97.87;99701.38;5032893;28;20781;-57
2024/02/21 08:42:25;;;;;;;0.40;0.40;;;;;;;7.83;97.05;99714.38;5037031;28;20491;-59
2024/02/21 08:44:52;;;;;;;0.45;0.45;;;;;;;8.05;97.16;99706.06;5035435;28;20053;-57
2024/02/21 08:47:22;;;;;;;0.30;0.30;;;;;;;8.24;95.45;99706.97;5026410;28;20766;-61
2024/02/21 08:49:49;;;;;;;0.40;0.40;;;;;;;8.08;94.52;99694.97;5033548;28;20049;-61
2024/02/21 08:52:17;;;;;;;0.30;0.30;;;;;;;8.10;95.11;99687.56;5046858;28;20837;-60
2024/02/21 08:54:44;;;;;;;0.32;0.32;;;;;;;8.11;95.06;99683.84;5034955;28;20082;-57
2024/02/21 08:57:13;;;;;;;0.30;0.30;;;;;;;8.30;94.80;99671.41;5028499;28;20155;-59
2024/02/21 08:59:44;;;;;;;0.30;0.30;;;;;;;8.40;93.65;99672.59;5036649;28;20398;-59
2024/02/21 09:02:12;;;;;;;0.30;0.30;;;;;;;8.12;94.01;99661.47;5032354;28;20939;-60
2024/02/21 09:04:41;;;;;;;0.30;0.30;;;;;;;8.23;94.53;99660.75;5028389;28;20140;-58
2024/02/21 09:07:09;;;;;;;0.40;0.40;;;;;;;8.25;93.43;99653.34;5015639;28;20496;-59
2024/02/21 09:09:38;;;;;;;0.30;0.30;;;;;;;8.38;92.21;99652.44;5032421;28;20052;-59
2024/02/21 09:12:06;;;;;;;0.30;0.30;;;;;;;8.41;92.53;99647.53;5034815;28;20048;-59
2024/02/21 09:14:34;;;;;;;0.30;0.30;;;;;;;8.64;91.47;99646.09;5034434;28;20769;-60
2024/02/21 09:17:02;;;;;;;0.40;0.40;;;;;;;8.62;90.40;99634.81;5028340;28;20041;-58
2024/02/21 09:19:30;;;;;;;0.40;0.40;;;;;;;8.24;91.21;99634.88;5018945;28;20038;-57
2024/02/21 09:21:57;;;;;;;0.30;0.30;;;;;;;8.74;88.78;99619.69;5030279;28;20073;-58
2024/02/21 09:24:24;;;;;;;0.30;0.30;;;;;;;8.37;89.56;99632.94;5036353;28;20637;-59
2024/02/21 09:26:51;;;;;;;0.30;0.30;;;;;;;8.85;88.49;99632.31;5032688;28;20381;-59
2024/02/21 09:29:18;;;;;;;0.30;0.30;;;;;;;8.61;89.94;99619.78;5030814;28;20586;-58
2024/02/21 09:31:47;;;;;;;0.30;0.30;;;;;;;8.58;90.85;99621.06;5020684;28;20133;-60
2024/02/21 09:34:16;;;;;;;0.40;0.40;;;;;;;8.39;91.84;99622.03;5030270;28;20057;-58
2024/02/21 09:36:47;;;;;;;0.30;0.30;;;;;;;8.68;91.79;99623.22;5027356;28;20050;-59
2024/02/21 09:39:14;;;;;;;0.30;0.30;;;;;;;8.61;92.08;99619.78;5025841;28;20045;-60
2024/02/21 09:41:44;;;;;;;0.30;0.30;;;;;;;8.70;90.88;99623.00;5032163;28;20118;-59
2024/02/21 09:44:14;;;;;;;0.30;0.30;;;;;;;8.37;91.72;99622.25;5034993;28;20064;-58
2024/02/21 09:46:43;;;;;;;0.20;0.20;;;;;;;8.46;92.18;99611.31;5032015;28;20118;-59
2024/02/21 09:49:18;;;;;;;0.20;0.20;;;;;;;8.40;91.25;99605.00;5034878;28;20679;-59
2024/02/21 09:51:45;;;;;;;0.30;0.30;;;;;;;8.32;90.96;99608.72;5031076;28;20302;-60
2024/02/21 09:54:12;;;;;;;0.40;0.40;;;;;;;8.11;90.33;99601.09;5033985;28;20053;-60
2024/02/21 09:56:40;;;;;;;0.30;0.30;;;;;;;8.26;91.17;99601.56;5030030;28;20041;-59
2024/02/21 09:59:07;;;;;;;0.25;0.25;;;;;;;8.14;91.01;99592.66;5032485;28;20591;-58
2024/02/21 10:01:34;;;;;;;0.30;0.30;;;;;;;8.33;91.96;99591.66;5031268;28;20507;-60
2024/02/21 10:04:02;;;;;;;0.30;0.30;;;;;;;8.54;90.63;99595.03;5031575;28;20052;-60
2024/02/21 10:06:31;;;;;;;0.40;0.40;;;;;;;8.43;91.20;99575.97;5034594;28;20049;-56
2024/02/21 10:08:58;;;;;;;0.30;0.30;;;;;;;8.62;91.42;99571.50;5032558;28;20037;-60
2024/02/21 10:11:25;;;;;;;0.40;0.40;;;;;;;8.34;90.48;99573.81;5034370;28;20100;-58
2024/02/21 10:14:04;;;;;;;0.40;0.40;;;;;;;8.65;90.58;99572.91;5039814;28;20079;-59
2024/02/21 10:16:31;;;;;;;0.40;0.40;;;;;;;8.45;90.85;99556.25;5043717;28;20044;-59
2024/02/21 10:18:58;;;;;;;0.30;0.30;;;;;;;8.30;90.15;99559.25;5038152;28;20483;-58
2024/02/21 10:21:25;;;;;;;0.25;0.25;;;;;;;8.56;90.25;99553.69;5032068;28;20053;-58
2024/02/21 10:23:54;;;;;;;0.30;0.30;;;;;;;8.31;90.35;99539.50;5040796;28;20099;-59
2024/02/21 10:26:21;;;;;;;0.30;0.30;;;;;;;8.47;90.71;99538.16;5034060;28;20187;-58
2024/02/21 10:28:51;;;;;;;0.40;0.40;;;;;;;8.52;90.61;99551.69;5040725;28;20040;-58
2024/02/21 10:31:25;;;;;;;0.30;0.30;;;;;;;8.59;90.58;99552.44;5036575;28;20047;-59
2024/02/21 10:33:57;;;;;;;0.20;0.20;;;;;;;8.75;90.95;99541.13;5038743;28;20139;-58
2024/02/21 10:36:24;;;;;;;0.30;0.30;;;;;;;8.36;90.80;99550.34;5035240;28;20144;-58
2024/02/21 10:38:51;;;;;;;0.30;0.30;;;;;;;8.68;91.90;99534.22;5032251;28;20427;-59
2024/02/21 10:41:20;;;;;;;0.30;0.30;;;;;;;8.44;91.23;99539.41;5037983;28;20142;-58
2024/02/21 10:43:50;;;;;;;0.30;0.30;;;;;;;8.32;92.02;99536.63;5036496;28;20056;-59
2024/02/21 10:46:19;;;;;;;0.30;0.30;;;;;;;8.49;93.96;99536.09;5032855;28;20102;-60
2024/02/21 10:48:47;;;;;;;0.22;0.22;;;;;;;8.59;93.40;99542.56;5033559;28;20044;-59
2024/02/21 10:51:19;;;;;;;0.30;0.30;;;;;;;8.57;93.59;99527.78;5028142;28;20124;-59
2024/02/21 10:53:49;;;;;;;0.30;0.30;;;;;;;8.36;94.77;99532.47;5041055;28;20041;-58
2024/02/21 10:56:24;;;;;;;0.38;0.38;;;;;;;8.47;94.42;99533.63;5032120;28;20045;-59
2024/02/21 10:58:52;;;;;;;0.30;0.30;;;;;;;8.74;93.76;99533.34;5033202;28;20048;-58
2024/02/21 11:01:19;;;;;;;0.40;0.40;;;;;;;8.71;94.18;99523.94;5040527;28;20048;-59
2024/02/21 11:03:47;;;;;;;0.40;0.40;;;;;;;8.81;94.54;99526.91;5034112;28;20045;-59
2024/02/21 11:06:14;;;;;;;0.30;0.30;;;;;;;8.91;93.01;99525.53;5033744;28;20578;-59
2024/02/21 11:08:41;;;;;;;0.30;0.30;;;;;;;8.46;94.18;99520.47;5030150;28;20057;-59
2024/02/21 11:11:10;;;;;;;0.30;0.30;;;;;;;8.77;95.59;99517.69;5035959;28;20038;-58
2024/02/21 11:13:38;;;;;;;0.30;0.30;;;;;;;8.92;93.50;99519.16;5044518;28;20124;-58
2024/02/21 11:16:10;;;;;;;0.25;0.25;;;;;;;8.57;95.72;99514.41;5030864;28;20052;-58
2024/02/21 11:18:37;;;;;;;0.35;0.35;;;;;;;8.63;94.71;99514.31;5035485;28;20051;-59
2024/02/21 11:21:07;;;;;;;0.30;0.30;;;;;;;8.55;94.78;99505.81;5030945;28;20132;-60
2024/02/21 11:23:36;;;;;;;0.22;0.22;;;;;;;8.80;96.65;99500.38;5028665;28;20048;-59
2024/02/21 11:26:07;;;;;;;0.30;0.30;;;;;;;8.90;95.46;99494.50;5031559;28;20717;-59
2024/02/21 11:28:34;;;;;;;0.30;0.30;;;;;;;9.03;93.79;99492.47;5042520;28;20491;-58
2024/02/21 11:31:14;;;;;;;0.30;0.30;;;;;;;8.90;93.55;99491.84;5031484;28;20119;-57
2024/02/21 11:33:42;;;;;;;;;;;;;;;9.11;93.17;99480.66;5034986;28;20122;-59
2024/02/21 11:36:12;;;;;;;0.20;0.20;;;;;;;8.70;94.69;99478.72;5032091;28;20037;-56